Time;durP1;ratioP1;P1;durP2;ratioP2;P2;SDS_P1;SDS_P2;PMS_P1;PMS_P2;Temp;Humidity;BMP_temperature;BMP_pressure;BME280_temperature;BME280_humidity;BME280_pressure;Samples;Min_cycle;Max_cycle;Signal;HPM_P1;HPM_P2
2022/10/21 00:00:55;;;;;;;;;;;10.80;99.90;;;;;;5027364;28;19910;-83
2022/10/21 00:03:22;;;;;;;;;;;10.80;99.90;;;;;;5009384;28;19914;-83
2022/10/21 00:05:48;;;;;;;;;;;10.80;99.90;;;;;;5024580;28;19909;-82
2022/10/21 00:08:14;;;;;;;;;;;10.80;99.90;;;;;;5024872;28;19917;-84
2022/10/21 00:10:40;;;;;;;;;;;10.70;99.90;;;;;;5024564;28;19910;-80
2022/10/21 00:13:06;;;;;;;;;;;10.70;99.90;;;;;;5027858;28;19921;-83
2022/10/21 00:15:31;;;;;;;;;;;10.60;99.90;;;;;;5012648;28;19956;-82
2022/10/21 00:17:57;;;;;;;;;;;10.60;99.90;;;;;;5027226;28;20385;-83
2022/10/21 00:20:22;;;;;;;;;;;10.60;99.90;;;;;;5022983;28;19914;-81
2022/10/21 00:22:48;;;;;;;;;;;10.60;99.90;;;;;;5022756;28;19971;-82
2022/10/21 00:25:14;;;;;;;;;;;10.60;99.90;;;;;;5029274;28;19913;-80
2022/10/21 00:27:39;;;;;;;;;;;10.50;99.90;;;;;;5032016;28;19941;-80
2022/10/21 00:30:05;;;;;;;;;;;10.50;99.90;;;;;;5033248;28;19937;-82
2022/10/21 00:32:31;;;;;;;;;;;10.50;99.90;;;;;;5034268;28;20069;-82
2022/10/21 00:34:57;;;;;;;;;;;10.40;99.90;;;;;;5033102;28;19925;-81
2022/10/21 00:37:23;;;;;;;;;;;10.40;99.90;;;;;;5032962;28;19976;-80
2022/10/21 00:39:49;;;;;;;;;;;10.30;99.90;;;;;;5034149;28;19900;-81
2022/10/21 00:42:16;;;;;;;;;;;10.30;99.90;;;;;;5033446;28;19968;-80
2022/10/21 00:44:42;;;;;;;;;;;10.30;99.90;;;;;;5035141;28;19910;-80
2022/10/21 00:47:17;;;;;;;;;;;10.30;99.90;;;;;;5036678;28;19940;-82
2022/10/21 00:49:47;;;;;;;;;;;10.20;99.90;;;;;;5034642;28;19925;-82
2022/10/21 00:52:22;;;;;;;;;;;10.20;99.90;;;;;;5033412;28;19936;-80
2022/10/21 00:54:50;;;;;;;;;;;10.20;99.90;;;;;;5037903;28;19905;-82
2022/10/21 00:57:17;;;;;;;;;;;10.10;99.90;;;;;;5036875;28;19913;-81
2022/10/21 00:59:46;;;;;;;;;;;10.10;99.90;;;;;;5019493;28;19923;-81
2022/10/21 01:02:11;;;;;;;;;;;10.10;99.90;;;;;;5037214;28;19897;-82
2022/10/21 01:04:37;;;;;;;;;;;10.00;99.90;;;;;;5039629;28;20008;-81
2022/10/21 01:07:03;;;;;;;;;;;10.00;99.90;;;;;;5038036;28;19914;-81
2022/10/21 01:09:29;;;;;;;;;;;9.90;99.90;;;;;;5036878;28;19985;-80
2022/10/21 01:11:55;;;;;;;;;;;9.90;99.90;;;;;;5038144;28;19909;-82
2022/10/21 01:14:31;;;;;;;;;;;9.90;99.90;;;;;;5037600;28;19929;-81
2022/10/21 01:16:56;;;;;;;;;;;9.80;99.90;;;;;;5037838;28;19901;-80
2022/10/21 01:19:25;;;;;;;;;;;9.80;99.90;;;;;;5035763;28;19997;-82
2022/10/21 01:22:11;;;;;;;;;;;9.80;99.90;;;;;;5029848;28;20370;-83
2022/10/21 01:24:46;;;;;;;;;;;9.80;99.90;;;;;;5032036;28;19925;-82
2022/10/21 01:27:20;;;;;;;;;;;9.70;99.90;;;;;;5036315;28;19914;-82
2022/10/21 01:29:49;;;;;;;;;;;9.70;99.90;;;;;;5035938;28;20009;-82
2022/10/21 01:32:37;;;;;;;;;;;9.70;99.90;;;;;;5037447;28;19965;-81
2022/10/21 01:35:09;;;;;;;;;;;9.70;99.90;;;;;;5037754;28;19989;-82
2022/10/21 01:37:44;;;;;;;;;;;9.60;99.90;;;;;;5036675;28;19913;-81
2022/10/21 01:40:17;;;;;;;;;;;9.60;99.90;;;;;;5035704;28;20016;-81
2022/10/21 01:42:45;;;;;;;;;;;9.60;99.90;;;;;;5035655;28;19921;-81
2022/10/21 01:45:19;;;;;;;;;;;9.60;99.90;;;;;;5036411;28;19909;-82
2022/10/21 01:47:50;;;;;;;;;;;9.60;99.90;;;;;;5018490;28;19914;-81
2022/10/21 01:50:18;;;;;;;;;;;9.60;99.90;;;;;;5035131;28;19914;-83
2022/10/21 01:52:46;;;;;;;;;;;9.50;99.90;;;;;;5033100;28;19921;-79
2022/10/21 01:55:14;;;;;;;;;;;9.60;99.90;;;;;;5034166;28;19914;-82
2022/10/21 01:57:42;;;;;;;;;;;9.50;99.90;;;;;;5034228;28;20330;-79
2022/10/21 02:00:08;;;;;;;;;;;9.50;99.90;;;;;;5034436;28;19913;-82
2022/10/21 02:02:36;;;;;;;;;;;9.50;99.90;;;;;;5034701;28;19936;-82
2022/10/21 02:05:05;;;;;;;;;;;9.50;99.90;;;;;;5033594;28;19925;-82
2022/10/21 02:07:30;;;;;;;;;;;9.50;99.90;;;;;;5034841;28;19918;-81
2022/10/21 02:09:56;;;;;;;;;;;9.50;99.90;;;;;;5033197;28;19979;-81
2022/10/21 02:12:23;;;;;;;;;;;9.50;99.90;;;;;;5035396;28;19918;-82
2022/10/21 02:14:50;;;;;;;;;;;9.40;99.90;;;;;;5035968;28;19933;-83
2022/10/21 02:17:17;;;;;;;;;;;9.40;99.90;;;;;;5035016;28;19932;-82
2022/10/21 02:19:43;;;;;;;;;;;9.40;99.90;;;;;;5033654;28;20479;-81
2022/10/21 02:25:01;;;;;;;;;;;9.40;99.90;;;;;;5046725;28;20012;-87
2022/10/21 02:27:27;;;;;;;;;;;9.40;99.90;;;;;;5046998;28;20453;-88
2022/10/21 02:29:58;;;;;;;;;;;9.40;99.90;;;;;;5031607;28;19940;-87
2022/10/21 02:32:30;;;;;;;;;;;9.40;99.90;;;;;;5038687;28;19904;-87
2022/10/21 02:35:23;;;;;;;;;;;9.40;99.90;;;;;;5046450;28;19947;-86
2022/10/21 02:38:06;;;;;;;;;;;9.40;99.90;;;;;;5045489;28;19901;-86
2022/10/21 02:40:42;;;;;;;;;;;9.40;99.90;;;;;;5045237;28;19912;-86
2022/10/21 02:43:13;;;;;;;;;;;9.40;99.90;;;;;;5059233;28;19931;-88
2022/10/21 02:45:41;;;;;;;;;;;9.40;99.90;;;;;;5045059;28;19916;-87
2022/10/21 02:48:16;;;;;;;;;;;9.40;99.90;;;;;;5045541;28;19987;-88
2022/10/21 02:50:45;;;;;;;;;;;9.40;99.90;;;;;;5038921;28;19913;-87
2022/10/21 02:53:16;;;;;;;;;;;9.30;99.90;;;;;;5042082;28;19920;-86
2022/10/21 02:55:45;;;;;;;;;;;9.30;99.90;;;;;;5060948;28;19916;-87
2022/10/21 02:58:12;;;;;;;;;;;9.40;99.90;;;;;;5060802;28;19901;-86
2022/10/21 03:01:11;;;;;;;;;;;9.30;99.90;;;;;;5062713;28;19929;-87
2022/10/21 03:03:40;;;;;;;;;;;9.30;99.90;;;;;;5043126;28;19939;-87
2022/10/21 03:06:09;;;;;;;;;;;9.30;99.90;;;;;;5044693;28;19929;-87
2022/10/21 03:08:36;;;;;;;;;;;9.30;99.90;;;;;;5059098;28;19905;-85
2022/10/21 03:11:07;;;;;;;;;;;9.30;99.90;;;;;;5044571;28;19897;-86
2022/10/21 03:13:38;;;;;;;;;;;9.30;99.90;;;;;;5060874;28;19912;-85
2022/10/21 03:16:04;;;;;;;;;;;9.30;99.90;;;;;;5078190;28;19905;-86
2022/10/21 03:18:30;;;;;;;;;;;9.30;99.90;;;;;;5061010;28;19912;-86
2022/10/21 03:20:56;;;;;;;;;;;9.30;99.90;;;;;;5060301;28;19911;-86
2022/10/21 03:23:22;;;;;;;;;;;9.30;99.90;;;;;;5044005;28;19924;-86
2022/10/21 03:25:47;;;;;;;;;;;9.30;99.90;;;;;;5044384;28;19905;-86
2022/10/21 03:28:15;;;;;;;;;;;9.30;99.90;;;;;;5044604;28;20196;-86
2022/10/21 03:30:41;;;;;;;;;;;9.20;99.90;;;;;;5044398;28;19905;-86
2022/10/21 03:33:07;;;;;;;;;;;9.30;99.90;;;;;;5060674;28;19940;-85
2022/10/21 03:35:45;;;;;;;;;;;9.30;99.90;;;;;;5078150;28;20131;-86
2022/10/21 03:38:13;;;;;;;;;;;9.30;99.90;;;;;;5044421;28;19912;-87
2022/10/21 03:40:39;;;;;;;;;;;9.30;99.90;;;;;;5043946;28;19901;-85
2022/10/21 03:43:12;;;;;;;;;;;9.30;99.90;;;;;;5060070;28;19943;-86
2022/10/21 03:45:45;;;;;;;;;;;9.30;99.90;;;;;;5060604;28;19927;-85
2022/10/21 03:48:18;;;;;;;;;;;9.30;99.90;;;;;;5077554;28;19904;-86
2022/10/21 03:50:56;;;;;;;;;;;9.30;99.90;;;;;;5077792;28;19905;-84
2022/10/21 03:53:30;;;;;;;;;;;9.20;99.90;;;;;;5041870;28;19912;-85
2022/10/21 03:56:04;;;;;;;;;;;9.20;99.90;;;;;;5077723;28;19912;-85
2022/10/21 03:58:34;;;;;;;;;;;9.20;99.90;;;;;;5077560;28;19926;-86
2022/10/21 04:01:06;;;;;;;;;;;9.30;99.90;;;;;;5044537;28;19901;-87
2022/10/21 04:03:32;;;;;;;;;;;9.30;99.90;;;;;;5043950;28;19946;-86
2022/10/21 04:05:57;;;;;;;;;;;9.30;99.90;;;;;;5043977;28;19912;-85
2022/10/21 04:08:29;;;;;;;;;;;9.30;99.90;;;;;;5060173;28;19928;-86
2022/10/21 04:10:58;;;;;;;;;;;9.30;99.90;;;;;;5043891;28;19901;-88
2022/10/21 04:13:35;;;;;;;;;;;9.30;99.90;;;;;;5043741;28;19908;-85
2022/10/21 04:16:12;;;;;;;;;;;9.30;99.90;;;;;;5060692;28;19905;-86
2022/10/21 04:18:41;;;;;;;;;;;9.30;99.90;;;;;;5043592;28;19927;-86
2022/10/21 04:21:13;;;;;;;;;;;9.40;99.90;;;;;;5046827;28;19973;-86
2022/10/21 04:23:56;;;;;;;;;;;9.40;99.90;;;;;;5061108;28;19927;-85
2022/10/21 04:26:28;;;;;;;;;;;9.40;99.90;;;;;;5065411;28;19909;-85
2022/10/21 04:28:54;;;;;;;;;;;9.40;99.90;;;;;;5044376;28;19943;-87
2022/10/21 04:31:35;;;;;;;;;;;9.30;99.90;;;;;;5048646;28;19905;-86
2022/10/21 04:34:09;;;;;;;;;;;9.30;99.90;;;;;;5063153;28;19972;-87
2022/10/21 04:36:38;;;;;;;;;;;9.30;99.90;;;;;;5045521;28;19905;-86
2022/10/21 04:39:12;;;;;;;;;;;9.20;99.90;;;;;;5063674;28;19912;-87
2022/10/21 04:41:54;;;;;;;;;;;9.20;99.90;;;;;;5045825;28;19932;-87
2022/10/21 04:44:24;;;;;;;;;;;9.10;99.90;;;;;;5062843;28;19940;-88
2022/10/21 04:46:58;;;;;;;;;;;9.10;99.90;;;;;;5063403;28;19932;-86
2022/10/21 04:49:32;;;;;;;;;;;9.10;99.90;;;;;;5047038;28;19927;-86
2022/10/21 04:52:14;;;;;;;;;;;9.10;99.90;;;;;;5047057;28;20063;-86
2022/10/21 04:54:42;;;;;;;;;;;9.10;99.90;;;;;;5063543;28;19933;-88
2022/10/21 04:57:24;;;;;;;;;;;9.00;99.90;;;;;;5063504;28;19913;-86
2022/10/21 05:02:45;;;;;;;;;;;8.90;99.90;;;;;;5482973;22;19924;-86
2022/10/21 05:05:20;;;;;;;;;;;8.90;99.90;;;;;;5062577;28;19905;-88
2022/10/21 05:07:49;;;;;;;;;;;8.90;99.90;;;;;;5062274;28;19912;-88
2022/10/21 05:10:31;;;;;;;;;;;;;;;;;;;;;
2022/10/21 05:13:13;;;;;;;;;;;8.80;99.90;;;;;;5078620;28;19931;-87
2022/10/21 05:15:41;;;;;;;;;;;8.80;99.90;;;;;;5014588;23;19933;-82
2022/10/21 05:18:07;;;;;;;;;;;8.70;99.90;;;;;;4976529;28;19918;-79
2022/10/21 05:20:33;;;;;;;;;;;8.70;99.90;;;;;;4980813;28;19907;-82
2022/10/21 05:22:58;;;;;;;;;;;8.60;99.90;;;;;;4989710;28;19923;-83
2022/10/21 05:25:24;;;;;;;;;;;8.60;99.90;;;;;;4986356;28;19921;-80
2022/10/21 05:27:50;;;;;;;;;;;8.60;99.90;;;;;;4973106;28;19910;-81
2022/10/21 05:30:15;;;;;;;;;;;8.60;99.90;;;;;;4989673;28;19907;-84
2022/10/21 05:32:41;;;;;;;;;;;8.50;99.90;;;;;;4979085;28;19910;-82
2022/10/21 05:35:07;;;;;;;;;;;8.50;99.90;;;;;;4976429;28;19923;-83
2022/10/21 05:37:33;;;;;;;;;;;8.50;99.90;;;;;;4975456;28;19921;-82
2022/10/21 05:39:58;;;;;;;;;;;8.50;99.90;;;;;;4972859;29;20001;-82
2022/10/21 05:42:25;;;;;;;;;;;8.40;99.90;;;;;;4968907;29;19934;-83
2022/10/21 05:44:51;;;;;;;;;;;8.40;99.90;;;;;;4971943;28;19916;-83
2022/10/21 05:47:16;;;;;;;;;;;8.40;99.90;;;;;;4975839;29;20438;-83
2022/10/21 05:49:42;;;;;;;;;;;8.30;99.90;;;;;;4977359;29;19926;-83
2022/10/21 05:52:08;;;;;;;;;;;8.40;99.90;;;;;;4977274;28;19911;-81
2022/10/21 05:54:33;;;;;;;;;;;8.40;99.90;;;;;;4975487;29;20402;-81
2022/10/21 05:57:01;;;;;;;;;;;8.40;99.90;;;;;;4970790;28;19966;-81
2022/10/21 05:59:26;;;;;;;;;;;8.40;99.90;;;;;;4967973;29;19922;-83
2022/10/21 06:01:52;;;;;;;;;;;8.40;99.90;;;;;;4969330;29;19915;-83
2022/10/21 06:04:18;;;;;;;;;;;8.40;99.90;;;;;;4971135;29;19914;-82
2022/10/21 06:06:43;;;;;;;;;;;8.40;99.90;;;;;;4970402;29;19911;-83
2022/10/21 06:09:09;;;;;;;;;;;8.40;99.90;;;;;;4968005;29;19915;-83
2022/10/21 06:11:35;;;;;;;;;;;8.50;99.90;;;;;;4968007;29;19911;-84
2022/10/21 06:14:00;;;;;;;;;;;8.50;99.90;;;;;;4966447;29;19919;-82
2022/10/21 06:16:26;;;;;;;;;;;8.50;99.90;;;;;;4967906;29;19919;-82
2022/10/21 06:18:52;;;;;;;;;;;8.50;99.90;;;;;;4968904;28;19919;-82
2022/10/21 06:21:18;;;;;;;;;;;8.60;99.90;;;;;;4991412;28;19910;-82
2022/10/21 06:23:43;;;;;;;;;;;8.60;99.90;;;;;;4976618;28;19903;-83
2022/10/21 06:26:10;;;;;;;;;;;8.70;99.90;;;;;;4990192;28;19914;-83
2022/10/21 06:28:37;;;;;;;;;;;8.80;99.90;;;;;;4969003;29;19925;-82
2022/10/21 06:31:02;;;;;;;;;;;8.80;99.90;;;;;;4970874;29;19914;-82
2022/10/21 06:33:28;;;;;;;;;;;8.80;99.90;;;;;;4968557;28;19925;-84
2022/10/21 06:35:54;;;;;;;;;;;8.80;99.90;;;;;;4967208;29;19917;-83
2022/10/21 06:38:20;;;;;;;;;;;8.90;99.90;;;;;;4981451;28;19966;-83
2022/10/21 06:40:47;;;;;;;;;;;8.90;99.90;;;;;;4965714;29;19916;-83
2022/10/21 06:43:13;;;;;;;;;;;8.90;99.90;;;;;;4966822;28;19918;-82
2022/10/21 06:45:41;;;;;;;;;;;9.00;99.90;;;;;;4970874;28;19915;-83
2022/10/21 06:48:07;;;;;;;;;;;9.10;99.90;;;;;;4973112;28;19946;-83
2022/10/21 06:50:36;;;;;;;;;;;9.20;99.90;;;;;;4977960;28;20189;-82
2022/10/21 06:53:01;;;;;;;;;;;9.30;99.90;;;;;;4970971;29;19922;-85
2022/10/21 06:55:27;;;;;;;;;;;9.40;99.90;;;;;;4966927;29;20009;-84
2022/10/21 06:57:53;;;;;;;;;;;9.40;99.90;;;;;;4968269;29;19941;-83
2022/10/21 07:00:18;;;;;;;;;;;9.50;99.90;;;;;;4976585;28;19945;-82
2022/10/21 07:02:44;;;;;;;;;;;9.60;99.90;;;;;;4973979;29;20005;-83
2022/10/21 07:05:10;;;;;;;;;;;9.70;99.90;;;;;;4975755;29;19911;-81
2022/10/21 07:07:35;;;;;;;;;;;9.80;99.90;;;;;;4977719;28;20079;-83
2022/10/21 07:10:01;;;;;;;;;;;9.90;99.90;;;;;;4974571;28;19910;-83
2022/10/21 07:12:29;;;;;;;;;;;9.90;99.90;;;;;;4968747;29;19934;-83
2022/10/21 07:14:54;;;;;;;;;;;10.00;99.90;;;;;;4969854;28;20262;-84
2022/10/21 07:17:20;;;;;;;;;;;10.10;99.90;;;;;;4970983;29;19921;-83
2022/10/21 07:19:46;;;;;;;;;;;10.20;99.90;;;;;;4970909;28;19917;-83
2022/10/21 07:22:16;;;;;;;;;;;10.20;99.90;;;;;;4977708;28;19917;-82
2022/10/21 07:24:42;;;;;;;;;;;10.30;99.90;;;;;;4994414;28;19906;-82
2022/10/21 07:27:07;;;;;;;;;;;10.40;99.90;;;;;;4994349;28;19971;-84
2022/10/21 07:29:33;;;;;;;;;;;10.50;99.90;;;;;;4979256;28;19983;-84
2022/10/21 07:31:59;;;;;;;;;;;10.60;99.90;;;;;;4979235;28;19914;-83
2022/10/21 07:34:25;;;;;;;;;;;10.60;99.90;;;;;;4963792;29;20407;-82
2022/10/21 07:36:51;;;;;;;;;;;10.60;99.90;;;;;;4966611;28;19918;-83
2022/10/21 07:39:18;;;;;;;;;;;10.60;99.90;;;;;;4967115;28;19953;-82
2022/10/21 07:41:48;;;;;;;;;;;10.60;99.90;;;;;;4972773;28;19911;-83
2022/10/21 07:44:14;;;;;;;;;;;10.60;99.90;;;;;;4977537;28;19907;-83
2022/10/21 07:46:40;;;;;;;;;;;10.80;99.90;;;;;;4965732;29;20104;-82
2022/10/21 07:49:06;;;;;;;;;;;10.90;99.90;;;;;;4968744;28;19915;-81
2022/10/21 07:51:32;;;;;;;;;;;11.00;99.90;;;;;;4970161;28;19997;-81
2022/10/21 07:53:59;;;;;;;;;;;11.10;99.90;;;;;;4971072;28;19986;-83
2022/10/21 07:56:35;;;;;;;;;;;11.20;99.90;;;;;;4971172;28;20096;-83
2022/10/21 07:59:01;;;;;;;;;;;11.30;99.90;;;;;;4970793;28;19921;-83
2022/10/21 08:01:26;;;;;;;;;;;11.40;99.90;;;;;;4972275;28;19930;-83
2022/10/21 08:03:53;;;;;;;;;;;11.40;99.90;;;;;;4987006;28;19918;-84
2022/10/21 08:06:19;;;;;;;;;;;11.40;99.90;;;;;;4970685;29;19961;-83
2022/10/21 08:08:45;;;;;;;;;;;11.50;99.90;;;;;;4972026;28;19946;-84
2022/10/21 08:11:11;;;;;;;;;;;11.70;99.90;;;;;;4972964;28;19911;-84
2022/10/21 08:13:38;;;;;;;;;;;11.80;99.90;;;;;;4975101;28;19906;-81
2022/10/21 08:16:04;;;;;;;;;;;11.80;99.90;;;;;;4976841;28;19969;-83
2022/10/21 08:18:31;;;;;;;;;;;11.90;99.90;;;;;;4971287;29;19922;-83
2022/10/21 08:20:56;;;;;;;;;;;11.90;99.90;;;;;;4974700;28;19911;-81
2022/10/21 08:23:23;;;;;;;;;;;12.10;99.90;;;;;;4969021;29;19949;-82
2022/10/21 08:25:50;;;;;;;;;;;12.20;99.90;;;;;;4970797;28;19910;-81
2022/10/21 08:28:16;;;;;;;;;;;12.40;99.90;;;;;;4979090;28;19910;-84
2022/10/21 08:30:42;;;;;;;;;;;12.50;99.90;;;;;;4981696;28;19918;-83
2022/10/21 08:33:08;;;;;;;;;;;12.60;99.90;;;;;;4978316;29;19922;-83
2022/10/21 08:35:34;;;;;;;;;;;12.90;99.90;;;;;;4979315;28;19953;-82
2022/10/21 08:38:00;;;;;;;;;;;13.10;99.90;;;;;;4978049;28;19918;-83
2022/10/21 08:40:28;;;;;;;;;;;13.50;99.90;;;;;;4979620;29;19942;-83
2022/10/21 08:42:54;;;;;;;;;;;13.90;99.90;;;;;;4979252;29;19903;-83
2022/10/21 08:45:49;;;;;;;;;;;14.20;99.90;;;;;;4975669;29;20354;-83
2022/10/21 08:48:18;;;;;;;;;;;14.20;99.90;;;;;;4958597;29;20005;-83
2022/10/21 08:50:46;;;;;;;;;;;14.00;99.90;;;;;;4991032;28;19952;-84
2022/10/21 08:53:16;;;;;;;;;;;14.00;99.90;;;;;;4973104;29;19922;-83
2022/10/21 08:55:43;;;;;;;;;;;13.90;99.90;;;;;;4976371;28;19962;-83
2022/10/21 08:58:13;;;;;;;;;;;13.80;99.90;;;;;;4976327;28;19915;-84
2022/10/21 09:00:44;;;;;;;;;;;13.70;99.90;;;;;;4972183;28;19914;-83
2022/10/21 09:03:31;;;;;;;;;;;13.80;99.90;;;;;;4970239;28;19926;-83
2022/10/21 09:06:16;;;;;;;;;;;13.80;99.90;;;;;;4965479;28;19914;-81
2022/10/21 09:08:47;;;;;;;;;;;13.80;99.90;;;;;;4968228;28;19924;-82
2022/10/21 09:11:19;;;;;;;;;;;13.70;99.90;;;;;;4968524;28;20391;-82
2022/10/21 09:13:51;;;;;;;;;;;13.60;99.90;;;;;;4966973;29;19918;-83
2022/10/21 09:16:26;;;;;;;;;;;13.50;99.90;;;;;;4969359;28;19918;-83
2022/10/21 09:19:01;;;;;;;;;;;13.50;99.90;;;;;;4970735;28;19914;-82
2022/10/21 09:21:29;;;;;;;;;;;13.50;99.90;;;;;;4969137;29;19914;-82
2022/10/21 09:23:55;;;;;;;;;;;13.50;99.90;;;;;;4969247;29;19973;-82
2022/10/21 09:26:30;;;;;;;;;;;13.60;99.90;;;;;;4969291;29;19914;-82
2022/10/21 09:28:56;;;;;;;;;;;13.80;99.90;;;;;;4973590;29;19915;-82
2022/10/21 09:31:21;;;;;;;;;;;13.90;99.90;;;;;;4979023;28;19914;-81
2022/10/21 09:33:58;;;;;;;;;;;14.10;99.90;;;;;;4976952;29;19911;-84
2022/10/21 09:36:27;;;;;;;;;;;14.30;99.90;;;;;;4971102;28;19921;-85
2022/10/21 09:38:55;;;;;;;;;;;14.30;99.90;;;;;;4970434;28;19915;-81
2022/10/21 09:41:27;;;;;;;;;;;14.30;99.90;;;;;;4969218;28;19969;-83
2022/10/21 09:43:54;;;;;;;;;;;14.20;99.90;;;;;;4971402;28;19919;-82
2022/10/21 09:46:20;;;;;;;;;;;14.10;99.90;;;;;;4976374;28;19914;-82
2022/10/21 09:48:50;;;;;;;;;;;14.20;99.90;;;;;;4979901;28;19926;-82
2022/10/21 09:51:18;;;;;;;;;;;14.30;99.90;;;;;;4974144;28;19918;-83
2022/10/21 09:53:47;;;;;;;;;;;15.10;99.90;;;;;;4983721;28;20263;-85
2022/10/21 09:56:16;;;;;;;;;;;15.80;99.90;;;;;;4985175;28;19918;-83
2022/10/21 09:58:41;;;;;;;;;;;15.60;99.90;;;;;;4979982;28;19902;-84
2022/10/21 10:01:07;;;;;;;;;;;15.30;99.90;;;;;;4972857;28;19922;-83
2022/10/21 10:03:35;;;;;;;;;;;15.10;99.90;;;;;;4974929;28;19925;-84
2022/10/21 10:06:02;;;;;;;;;;;15.10;99.90;;;;;;4976359;28;19914;-83
2022/10/21 10:08:41;;;;;;;;;;;15.00;99.90;;;;;;4974816;28;19943;-82
2022/10/21 10:11:10;;;;;;;;;;;15.00;99.90;;;;;;4989520;28;19922;-83
2022/10/21 10:13:36;;;;;;;;;;;14.90;99.90;;;;;;4978415;28;19938;-82
2022/10/21 10:16:11;;;;;;;;;;;14.60;99.90;;;;;;4969054;28;19997;-83
2022/10/21 10:18:37;;;;;;;;;;;14.50;99.90;;;;;;4967442;29;19921;-83
2022/10/21 10:21:05;;;;;;;;;;;14.60;99.90;;;;;;4968945;29;20422;-82
2022/10/21 10:23:40;;;;;;;;;;;14.80;99.90;;;;;;4970631;28;20046;-83
2022/10/21 10:26:06;;;;;;;;;;;15.00;99.90;;;;;;4968394;28;19973;-83
2022/10/21 10:28:32;;;;;;;;;;;15.30;99.90;;;;;;4966565;29;19911;-83
2022/10/21 10:30:58;;;;;;;;;;;15.30;99.90;;;;;;4968931;29;19918;-83
2022/10/21 10:33:25;;;;;;;;;;;15.40;99.90;;;;;;4965366;29;19918;-83
2022/10/21 10:35:56;;;;;;;;;;;15.40;99.90;;;;;;4965134;28;19914;-84
2022/10/21 10:38:34;;;;;;;;;;;15.30;99.90;;;;;;4966891;29;19929;-83
2022/10/21 10:41:14;;;;;;;;;;;15.20;99.90;;;;;;4967547;28;20457;-82
2022/10/21 10:43:53;;;;;;;;;;;15.10;99.90;;;;;;4967968;28;19914;-84
2022/10/21 10:46:22;;;;;;;;;;;15.10;99.90;;;;;;4983099;28;19954;-84
2022/10/21 10:48:49;;;;;;;;;;;15.10;99.90;;;;;;4967338;28;20398;-84
2022/10/21 10:51:21;;;;;;;;;;;14.80;99.90;;;;;;4969112;29;19982;-82
2022/10/21 10:53:57;;;;;;;;;;;14.80;99.90;;;;;;4970348;29;19919;-83
2022/10/21 10:56:38;;;;;;;;;;;15.00;99.90;;;;;;4968991;28;20009;-82
2022/10/21 10:59:10;;;;;;;;;;;15.20;99.90;;;;;;4971453;29;19915;-84
2022/10/21 11:01:48;;;;;;;;;;;15.50;99.90;;;;;;4971762;29;19902;-83
2022/10/21 11:04:34;;;;;;;;;;;15.50;99.90;;;;;;4977819;28;19921;-84
2022/10/21 11:07:20;;;;;;;;;;;15.60;99.90;;;;;;4975681;28;19921;-82
2022/10/21 11:09:46;;;;;;;;;;;15.40;99.90;;;;;;4992058;28;19914;-83
2022/10/21 11:12:15;;;;;;;;;;;15.30;99.90;;;;;;4976942;28;20339;-84
2022/10/21 11:14:48;;;;;;;;;;;15.40;99.90;;;;;;4998119;23;19922;-85
2022/10/21 11:18:12;;;;;;;;;;;15.60;99.90;;;;;;4998381;28;19906;-88
2022/10/21 11:21:13;;;;;;;;;;;15.90;99.90;;;;;;4964450;28;19919;-88
2022/10/21 11:23:58;;;;;;;;;;;16.10;99.90;;;;;;4991941;28;19914;-88
2022/10/21 11:26:59;;;;;;;;;;;16.00;99.90;;;;;;4991597;28;19909;-90
2022/10/21 11:30:06;;;;;;;;;;;15.70;99.90;;;;;;4988220;28;19973;-88
2022/10/21 11:32:53;;;;;;;;;;;15.40;99.90;;;;;;4991384;28;19957;-90
2022/10/21 11:35:53;;;;;;;;;;;15.50;99.90;;;;;;4971954;28;20149;-89
2022/10/21 11:39:21;;;;;;;;;;;15.70;99.90;;;;;;5004864;28;19925;-89
2022/10/21 11:42:05;;;;;;;;;;;15.90;99.90;;;;;;4991394;28;19914;-87
2022/10/21 11:45:19;;;;;;;;;;;15.80;99.90;;;;;;4983344;28;19913;-87
2022/10/21 11:48:15;;;;;;;;;;;16.00;99.90;;;;;;4998206;28;19906;-85
2022/10/21 11:54:24;;;;;;;;;;;16.00;99.90;;;;;;4989873;28;19914;-86
2022/10/21 11:57:25;;;;;;;;;;;;;;;;;;;;;
2022/10/21 12:00:34;;;;;;;;;;;16.40;99.90;;;;;;4984327;28;20009;-88
2022/10/21 12:04:03;;;;;;;;;;;16.70;99.00;;;;;;4980725;28;19934;-86
2022/10/21 12:10:41;;;;;;;;;;;17.20;98.20;;;;;;4954480;28;19915;-88
2022/10/21 12:14:09;;;;;;;;;;;17.20;97.90;;;;;;4961023;29;19930;-89
2022/10/21 12:17:23;;;;;;;;;;;16.70;98.30;;;;;;4896594;29;19926;-90
2022/10/21 12:20:25;;;;;;;;;;;16.20;99.30;;;;;;4884270;29;19959;-90
2022/10/21 12:26:16;;;;;;;;;;;15.60;99.90;;;;;;4920373;29;19939;-85
2022/10/21 12:29:16;;;;;;;;;;;15.50;99.90;;;;;;4993635;28;19925;-85
2022/10/21 12:32:38;;;;;;;;;;;;;;;;;;;;;
2022/10/21 12:35:41;;;;;;;;;;;15.10;99.90;;;;;;4994229;28;19937;-90
2022/10/21 12:41:46;;;;;;;;;;;14.70;99.90;;;;;;4996928;28;19941;-87
2022/10/21 12:44:54;;;;;;;;;;;14.40;99.90;;;;;;4977666;28;19954;-89
2022/10/21 12:48:21;;;;;;;;;;;14.30;99.90;;;;;;4979039;28;19903;-87
2022/10/21 12:51:28;;;;;;;;;;;14.20;99.90;;;;;;4918742;29;19922;-86
2022/10/21 12:57:44;;;;;;;;;;;14.10;99.90;;;;;;4921712;29;19978;-86
2022/10/21 13:01:02;;;;;;;;;;;14.00;99.90;;;;;;4910002;29;20037;-85
2022/10/21 13:03:46;;;;;;;;;;;14.00;99.90;;;;;;4914672;29;19927;-88
2022/10/21 13:09:46;;;;;;;;;;;13.80;99.90;;;;;;4941804;29;19910;-87
2022/10/21 13:12:40;;;;;;;;;;;13.90;99.90;;;;;;4983100;28;19914;-86
2022/10/21 13:15:31;;;;;;;;;;;14.00;99.90;;;;;;4999055;28;19922;-87
2022/10/21 13:18:32;;;;;;;;;;;14.10;99.90;;;;;;4969046;28;19906;-86
2022/10/21 13:21:32;;;;;;;;;;;14.10;99.90;;;;;;4990833;28;19957;-88
2022/10/21 13:24:36;;;;;;;;;;;14.20;99.90;;;;;;4983964;28;19937;-88
2022/10/21 13:27:33;;;;;;;;;;;14.30;99.90;;;;;;4970695;28;19986;-90
2022/10/21 13:30:48;;;;;;;;;;;14.30;99.90;;;;;;4995437;28;19933;-87
2022/10/21 13:33:57;;;;;;;;;;;14.30;99.90;;;;;;5000874;28;19914;-85
2022/10/21 13:39:56;;;;;;;;;;;14.20;99.90;;;;;;4963265;28;19903;-88
2022/10/21 13:42:31;;;;;;;;;;;14.20;99.90;;;;;;4979824;28;19965;-87
2022/10/21 13:45:50;;;;;;;;;;;14.20;99.90;;;;;;4984983;28;19903;-87
2022/10/21 13:48:25;;;;;;;;;;;14.10;99.90;;;;;;4999557;28;19906;-87
2022/10/21 13:50:54;;;;;;;;;;;14.10;99.90;;;;;;4998994;28;19917;-85
2022/10/21 13:53:42;;;;;;;;;;;14.00;99.90;;;;;;4960625;28;20031;-86
2022/10/21 13:56:17;;;;;;;;;;;14.00;99.90;;;;;;4982790;28;19907;-86
2022/10/21 13:58:57;;;;;;;;;;;13.80;99.90;;;;;;4999028;28;19933;-87
2022/10/21 14:01:35;;;;;;;;;;;13.90;99.90;;;;;;4981051;28;19903;-87
2022/10/21 14:04:30;;;;;;;;;;;13.90;99.90;;;;;;4974229;28;19917;-88
2022/10/21 14:07:14;;;;;;;;;;;13.90;99.90;;;;;;4963693;28;19965;-88
2022/10/21 14:09:51;;;;;;;;;;;13.90;99.90;;;;;;4976239;28;19934;-89
2022/10/21 14:12:49;;;;;;;;;;;13.90;99.90;;;;;;4993192;28;19898;-88
2022/10/21 14:15:55;;;;;;;;;;;13.80;99.90;;;;;;4989761;28;19925;-87
2022/10/21 14:18:44;;;;;;;;;;;13.80;99.90;;;;;;4985077;28;19937;-85
2022/10/21 14:24:55;;;;;;;;;;;13.80;99.90;;;;;;4997707;28;19918;-87
2022/10/21 14:28:19;;;;;;;;;;;13.70;99.90;;;;;;4998422;28;19945;-88
2022/10/21 14:31:14;;;;;;;;;;;13.70;99.90;;;;;;4976409;28;19933;-89
2022/10/21 14:34:08;;;;;;;;;;;13.60;99.90;;;;;;4963582;28;19914;-86
2022/10/21 14:36:57;;;;;;;;;;;13.60;99.90;;;;;;4979407;28;19907;-87
2022/10/21 14:39:25;;;;;;;;;;;13.60;99.90;;;;;;4971024;29;19990;-88
2022/10/21 14:42:00;;;;;;;;;;;13.60;99.90;;;;;;4982416;28;19938;-89
2022/10/21 14:45:05;;;;;;;;;;;13.60;99.90;;;;;;4995997;28;19916;-86
2022/10/21 14:47:47;;;;;;;;;;;13.60;99.90;;;;;;4999064;28;19914;-86
2022/10/21 14:50:32;;;;;;;;;;;13.60;99.90;;;;;;4982838;28;19906;-87
2022/10/21 14:53:31;;;;;;;;;;;13.50;99.90;;;;;;4995838;28;19953;-85
2022/10/21 14:56:38;;;;;;;;;;;13.40;99.90;;;;;;4998703;28;19930;-87
2022/10/21 15:02:45;;;;;;;;;;;13.30;99.90;;;;;;4956679;29;19919;-90
2022/10/21 15:05:35;;;;;;;;;;;13.30;99.90;;;;;;4975766;28;19954;-88
2022/10/21 15:08:43;;;;;;;;;;;13.30;99.90;;;;;;4976165;28;19978;-90
2022/10/21 15:11:19;;;;;;;;;;;13.10;99.90;;;;;;4995480;28;19918;-91
2022/10/21 15:14:19;;;;;;;;;;;13.10;99.90;;;;;;4971539;28;19921;-90
2022/10/21 15:17:45;;;;;;;;;;;13.00;99.90;;;;;;4985525;28;20014;-89
2022/10/21 15:20:25;;;;;;;;;;;13.00;99.90;;;;;;4978512;28;19910;-84
2022/10/21 15:23:33;;;;;;;;;;;13.00;99.90;;;;;;4992484;28;20018;-86
2022/10/21 15:26:35;;;;;;;;;;;13.00;99.90;;;;;;4997668;28;19922;-85
2022/10/21 15:29:47;;;;;;;;;;;12.90;99.90;;;;;;4980504;28;19918;-90
2022/10/21 15:46:18;;;;;;;;;;;12.90;99.90;;;;;;3282389;26;19930;-88
2022/10/21 15:49:15;;;;;;;;;;;12.90;99.90;;;;;;5003257;28;19922;-87
2022/10/21 15:52:06;;;;;;;;;;;12.90;99.90;;;;;;4948524;28;19919;-87
2022/10/21 15:57:45;;;;;;;;;;;12.90;99.90;;;;;;5100060;22;19953;-88
2022/10/21 16:00:56;;;;;;;;;;;12.90;99.90;;;;;;5020587;28;19944;-88
2022/10/21 16:03:58;;;;;;;;;;;;;;;;;;;;;
2022/10/21 16:06:46;;;;;;;;;;;12.90;99.90;;;;;;5000649;28;19906;-89
2022/10/21 16:12:33;;;;;;;;;;;12.80;99.90;;;;;;5060972;23;19957;-81